sensor_id;sensor_type;location;lat;lon;timestamp;temperature;humidity
29341;DHT22;16337;59.536;13.468;2023-05-20T00:01:05;5.60;99.90
29341;DHT22;16337;59.536;13.468;2023-05-20T00:03:31;5.60;99.90
29341;DHT22;16337;59.536;13.468;2023-05-20T00:05:57;5.50;99.90
29341;DHT22;16337;59.536;13.468;2023-05-20T00:08:23;5.60;99.90
29341;DHT22;16337;59.536;13.468;2023-05-20T00:10:48;5.50;99.90
29341;DHT22;16337;59.536;13.468;2023-05-20T00:13:14;5.50;99.90
29341;DHT22;16337;59.536;13.468;2023-05-20T00:15:40;5.50;99.90
29341;DHT22;16337;59.536;13.468;2023-05-20T00:18:06;5.50;99.90
29341;DHT22;16337;59.536;13.468;2023-05-20T00:20:32;5.40;99.90
29341;DHT22;16337;59.536;13.468;2023-05-20T00:22:57;5.40;99.90
29341;DHT22;16337;59.536;13.468;2023-05-20T00:25:23;5.40;99.90
29341;DHT22;16337;59.536;13.468;2023-05-20T00:27:49;5.30;99.90
29341;DHT22;16337;59.536;13.468;2023-05-20T00:30:14;5.40;99.90
29341;DHT22;16337;59.536;13.468;2023-05-20T00:32:40;5.30;99.90
29341;DHT22;16337;59.536;13.468;2023-05-20T00:35:06;5.30;99.90
29341;DHT22;16337;59.536;13.468;2023-05-20T00:37:32;5.30;99.90
29341;DHT22;16337;59.536;13.468;2023-05-20T00:39:58;5.20;99.90
29341;DHT22;16337;59.536;13.468;2023-05-20T00:42:26;5.20;99.90
29341;DHT22;16337;59.536;13.468;2023-05-20T00:44:52;5.20;99.90
29341;DHT22;16337;59.536;13.468;2023-05-20T00:47:19;5.10;99.90
29341;DHT22;16337;59.536;13.468;2023-05-20T00:49:46;5.10;99.90
29341;DHT22;16337;59.536;13.468;2023-05-20T00:52:13;5.00;99.90
29341;DHT22;16337;59.536;13.468;2023-05-20T00:54:39;5.00;99.90
29341;DHT22;16337;59.536;13.468;2023-05-20T00:57:06;5.00;99.90
29341;DHT22;16337;59.536;13.468;2023-05-20T00:59:35;4.90;99.90
29341;DHT22;16337;59.536;13.468;2023-05-20T01:02:02;4.90;99.90
29341;DHT22;16337;59.536;13.468;2023-05-20T01:04:29;4.80;99.90
29341;DHT22;16337;59.536;13.468;2023-05-20T01:06:55;4.80;99.90
29341;DHT22;16337;59.536;13.468;2023-05-20T01:09:25;4.70;99.90
29341;DHT22;16337;59.536;13.468;2023-05-20T01:12:00;4.70;99.90
29341;DHT22;16337;59.536;13.468;2023-05-20T01:14:30;4.60;99.90
29341;DHT22;16337;59.536;13.468;2023-05-20T01:16:58;4.60;99.90
29341;DHT22;16337;59.536;13.468;2023-05-20T01:19:34;4.60;99.90
29341;DHT22;16337;59.536;13.468;2023-05-20T01:22:05;4.60;99.90
29341;DHT22;16337;59.536;13.468;2023-05-20T01:24:32;4.60;99.90
29341;DHT22;16337;59.536;13.468;2023-05-20T01:26:58;4.50;99.90
29341;DHT22;16337;59.536;13.468;2023-05-20T01:29:24;4.60;99.90
29341;DHT22;16337;59.536;13.468;2023-05-20T01:31:53;4.50;99.90
29341;DHT22;16337;59.536;13.468;2023-05-20T01:34:21;4.50;99.90
29341;DHT22;16337;59.536;13.468;2023-05-20T01:36:47;4.50;99.90
29341;DHT22;16337;59.536;13.468;2023-05-20T01:39:14;4.50;99.90
29341;DHT22;16337;59.536;13.468;2023-05-20T01:41:40;4.50;99.90
29341;DHT22;16337;59.536;13.468;2023-05-20T01:44:06;4.50;99.90
29341;DHT22;16337;59.536;13.468;2023-05-20T01:46:32;4.50;99.90
29341;DHT22;16337;59.536;13.468;2023-05-20T01:48:59;4.40;99.90
29341;DHT22;16337;59.536;13.468;2023-05-20T01:51:25;4.40;99.90
29341;DHT22;16337;59.536;13.468;2023-05-20T01:53:51;4.40;99.90
29341;DHT22;16337;59.536;13.468;2023-05-20T01:56:16;4.40;99.90
29341;DHT22;16337;59.536;13.468;2023-05-20T01:58:42;4.30;99.90
29341;DHT22;16337;59.536;13.468;2023-05-20T02:01:08;4.30;99.90
29341;DHT22;16337;59.536;13.468;2023-05-20T02:03:33;4.30;99.90
29341;DHT22;16337;59.536;13.468;2023-05-20T02:05:59;4.30;99.90
29341;DHT22;16337;59.536;13.468;2023-05-20T02:08:25;4.40;99.90
29341;DHT22;16337;59.536;13.468;2023-05-20T02:10:51;4.30;99.90
29341;DHT22;16337;59.536;13.468;2023-05-20T02:13:16;4.30;99.90
29341;DHT22;16337;59.536;13.468;2023-05-20T02:15:42;4.30;99.90
29341;DHT22;16337;59.536;13.468;2023-05-20T02:18:08;4.20;99.90
29341;DHT22;16337;59.536;13.468;2023-05-20T02:20:37;4.20;99.90
29341;DHT22;16337;59.536;13.468;2023-05-20T02:23:02;4.20;99.90
29341;DHT22;16337;59.536;13.468;2023-05-20T02:25:30;4.20;99.90
29341;DHT22;16337;59.536;13.468;2023-05-20T02:27:57;4.10;99.90
29341;DHT22;16337;59.536;13.468;2023-05-20T02:30:22;4.10;99.90
29341;DHT22;16337;59.536;13.468;2023-05-20T02:32:48;4.10;99.90
29341;DHT22;16337;59.536;13.468;2023-05-20T02:35:14;4.10;99.90
29341;DHT22;16337;59.536;13.468;2023-05-20T02:37:40;4.10;99.90
29341;DHT22;16337;59.536;13.468;2023-05-20T02:40:09;4.10;99.90
29341;DHT22;16337;59.536;13.468;2023-05-20T02:42:35;4.10;99.90
29341;DHT22;16337;59.536;13.468;2023-05-20T02:45:00;4.10;99.90
29341;DHT22;16337;59.536;13.468;2023-05-20T02:47:26;4.10;99.90
29341;DHT22;16337;59.536;13.468;2023-05-20T02:49:52;4.10;99.90
29341;DHT22;16337;59.536;13.468;2023-05-20T02:52:18;4.10;99.90
29341;DHT22;16337;59.536;13.468;2023-05-20T02:54:43;4.10;99.90
29341;DHT22;16337;59.536;13.468;2023-05-20T02:57:09;4.20;99.90
29341;DHT22;16337;59.536;13.468;2023-05-20T02:59:35;4.20;99.90
29341;DHT22;16337;59.536;13.468;2023-05-20T03:02:01;4.20;99.90
29341;DHT22;16337;59.536;13.468;2023-05-20T03:04:27;4.20;99.90
29341;DHT22;16337;59.536;13.468;2023-05-20T03:06:53;4.20;99.90
29341;DHT22;16337;59.536;13.468;2023-05-20T03:09:22;4.20;99.90
29341;DHT22;16337;59.536;13.468;2023-05-20T03:11:49;4.30;99.90
29341;DHT22;16337;59.536;13.468;2023-05-20T03:14:15;4.30;99.90
29341;DHT22;16337;59.536;13.468;2023-05-20T03:16:41;4.30;99.90
29341;DHT22;16337;59.536;13.468;2023-05-20T03:19:07;4.40;99.90
29341;DHT22;16337;59.536;13.468;2023-05-20T03:21:32;4.40;99.90
29341;DHT22;16337;59.536;13.468;2023-05-20T03:23:58;4.50;99.90
29341;DHT22;16337;59.536;13.468;2023-05-20T03:26:24;4.60;99.90
29341;DHT22;16337;59.536;13.468;2023-05-20T03:28:50;4.70;99.90
29341;DHT22;16337;59.536;13.468;2023-05-20T03:31:16;4.70;99.90
29341;DHT22;16337;59.536;13.468;2023-05-20T03:33:42;4.80;99.90
29341;DHT22;16337;59.536;13.468;2023-05-20T03:36:08;4.90;99.90
29341;DHT22;16337;59.536;13.468;2023-05-20T03:38:33;5.00;99.90
29341;DHT22;16337;59.536;13.468;2023-05-20T03:40:59;5.10;99.90
29341;DHT22;16337;59.536;13.468;2023-05-20T03:43:25;5.20;99.90
29341;DHT22;16337;59.536;13.468;2023-05-20T03:45:51;5.30;99.90
29341;DHT22;16337;59.536;13.468;2023-05-20T03:48:17;5.40;99.90
29341;DHT22;16337;59.536;13.468;2023-05-20T03:50:43;5.50;99.90
29341;DHT22;16337;59.536;13.468;2023-05-20T03:53:08;5.60;99.90
29341;DHT22;16337;59.536;13.468;2023-05-20T03:55:34;5.70;99.90
29341;DHT22;16337;59.536;13.468;2023-05-20T03:58:00;5.80;99.90
29341;DHT22;16337;59.536;13.468;2023-05-20T04:00:26;5.90;99.90
29341;DHT22;16337;59.536;13.468;2023-05-20T04:02:52;6.00;99.90
29341;DHT22;16337;59.536;13.468;2023-05-20T04:05:18;6.10;99.90
29341;DHT22;16337;59.536;13.468;2023-05-20T04:07:44;6.30;99.90
29341;DHT22;16337;59.536;13.468;2023-05-20T04:10:10;6.40;99.90
29341;DHT22;16337;59.536;13.468;2023-05-20T04:12:36;6.50;99.90
29341;DHT22;16337;59.536;13.468;2023-05-20T04:15:03;6.60;99.90
29341;DHT22;16337;59.536;13.468;2023-05-20T04:17:29;6.70;99.90
29341;DHT22;16337;59.536;13.468;2023-05-20T04:19:56;6.80;99.90
29341;DHT22;16337;59.536;13.468;2023-05-20T04:22:22;7.00;99.90
29341;DHT22;16337;59.536;13.468;2023-05-20T04:24:48;7.10;99.90
29341;DHT22;16337;59.536;13.468;2023-05-20T04:27:14;7.20;99.90
29341;DHT22;16337;59.536;13.468;2023-05-20T04:29:42;7.40;99.90
29341;DHT22;16337;59.536;13.468;2023-05-20T04:32:17;7.50;99.90
29341;DHT22;16337;59.536;13.468;2023-05-20T04:34:43;7.70;99.90
29341;DHT22;16337;59.536;13.468;2023-05-20T04:37:10;7.90;99.90
29341;DHT22;16337;59.536;13.468;2023-05-20T04:39:35;8.00;99.90
29341;DHT22;16337;59.536;13.468;2023-05-20T04:42:02;8.10;99.90
29341;DHT22;16337;59.536;13.468;2023-05-20T04:44:28;8.20;99.90
29341;DHT22;16337;59.536;13.468;2023-05-20T04:46:54;8.30;99.90
29341;DHT22;16337;59.536;13.468;2023-05-20T04:49:22;8.40;99.90
29341;DHT22;16337;59.536;13.468;2023-05-20T04:51:50;8.50;99.90
29341;DHT22;16337;59.536;13.468;2023-05-20T04:54:16;8.70;99.90
29341;DHT22;16337;59.536;13.468;2023-05-20T04:56:43;8.80;99.90
29341;DHT22;16337;59.536;13.468;2023-05-20T04:59:09;8.90;99.90
29341;DHT22;16337;59.536;13.468;2023-05-20T05:01:35;9.10;99.90
29341;DHT22;16337;59.536;13.468;2023-05-20T05:04:01;9.20;99.90
29341;DHT22;16337;59.536;13.468;2023-05-20T05:06:28;9.40;99.90
29341;DHT22;16337;59.536;13.468;2023-05-20T05:08:54;9.50;99.90
29341;DHT22;16337;59.536;13.468;2023-05-20T05:11:20;9.60;99.90
29341;DHT22;16337;59.536;13.468;2023-05-20T05:13:46;9.80;99.90
29341;DHT22;16337;59.536;13.468;2023-05-20T05:16:11;9.90;99.90
29341;DHT22;16337;59.536;13.468;2023-05-20T05:18:37;10.10;99.90
29341;DHT22;16337;59.536;13.468;2023-05-20T05:21:04;10.30;99.90
29341;DHT22;16337;59.536;13.468;2023-05-20T05:23:30;10.40;99.90
29341;DHT22;16337;59.536;13.468;2023-05-20T05:25:55;10.60;99.90
29341;DHT22;16337;59.536;13.468;2023-05-20T05:28:22;10.80;99.90
29341;DHT22;16337;59.536;13.468;2023-05-20T05:30:48;10.90;99.90
29341;DHT22;16337;59.536;13.468;2023-05-20T05:33:14;11.00;99.90
29341;DHT22;16337;59.536;13.468;2023-05-20T05:35:43;11.10;99.90
29341;DHT22;16337;59.536;13.468;2023-05-20T05:38:08;11.30;99.90
29341;DHT22;16337;59.536;13.468;2023-05-20T05:40:35;11.50;99.90
29341;DHT22;16337;59.536;13.468;2023-05-20T05:43:01;11.60;99.90
29341;DHT22;16337;59.536;13.468;2023-05-20T05:45:26;11.70;99.90
29341;DHT22;16337;59.536;13.468;2023-05-20T05:47:52;11.80;99.90
29341;DHT22;16337;59.536;13.468;2023-05-20T05:50:18;11.90;99.90
29341;DHT22;16337;59.536;13.468;2023-05-20T05:52:44;12.10;99.90
29341;DHT22;16337;59.536;13.468;2023-05-20T05:55:10;12.20;99.90
29341;DHT22;16337;59.536;13.468;2023-05-20T05:57:36;12.50;99.90
29341;DHT22;16337;59.536;13.468;2023-05-20T06:00:02;12.70;99.90
29341;DHT22;16337;59.536;13.468;2023-05-20T06:02:29;12.90;99.90
29341;DHT22;16337;59.536;13.468;2023-05-20T06:04:54;13.10;99.90
29341;DHT22;16337;59.536;13.468;2023-05-20T06:07:21;13.30;99.90
29341;DHT22;16337;59.536;13.468;2023-05-20T06:09:47;13.60;99.90
29341;DHT22;16337;59.536;13.468;2023-05-20T06:12:13;13.70;99.90
29341;DHT22;16337;59.536;13.468;2023-05-20T06:14:39;13.90;99.90
29341;DHT22;16337;59.536;13.468;2023-05-20T06:17:04;14.10;99.90
29341;DHT22;16337;59.536;13.468;2023-05-20T06:19:30;14.30;99.90
29341;DHT22;16337;59.536;13.468;2023-05-20T06:21:56;14.50;99.90
29341;DHT22;16337;59.536;13.468;2023-05-20T06:24:23;14.70;99.90
29341;DHT22;16337;59.536;13.468;2023-05-20T06:26:48;15.00;99.90
29341;DHT22;16337;59.536;13.468;2023-05-20T06:29:15;15.10;99.90
29341;DHT22;16337;59.536;13.468;2023-05-20T06:31:41;15.30;99.90
29341;DHT22;16337;59.536;13.468;2023-05-20T06:34:07;15.50;99.90
29341;DHT22;16337;59.536;13.468;2023-05-20T06:36:32;15.60;99.90
29341;DHT22;16337;59.536;13.468;2023-05-20T06:38:58;15.70;99.90
29341;DHT22;16337;59.536;13.468;2023-05-20T06:41:24;15.90;99.90
29341;DHT22;16337;59.536;13.468;2023-05-20T06:43:51;16.20;99.90
29341;DHT22;16337;59.536;13.468;2023-05-20T06:46:16;16.50;99.90
29341;DHT22;16337;59.536;13.468;2023-05-20T06:48:42;16.70;99.90
29341;DHT22;16337;59.536;13.468;2023-05-20T06:51:08;16.70;99.90
29341;DHT22;16337;59.536;13.468;2023-05-20T06:53:34;16.70;99.90
29341;DHT22;16337;59.536;13.468;2023-05-20T06:56:00;16.80;99.90
29341;DHT22;16337;59.536;13.468;2023-05-20T06:58:27;17.20;99.90
29341;DHT22;16337;59.536;13.468;2023-05-20T07:00:53;17.40;99.90
29341;DHT22;16337;59.536;13.468;2023-05-20T07:03:19;17.20;99.90
29341;DHT22;16337;59.536;13.468;2023-05-20T07:05:45;17.30;99.90
29341;DHT22;16337;59.536;13.468;2023-05-20T07:08:10;17.40;99.90
29341;DHT22;16337;59.536;13.468;2023-05-20T07:10:36;17.50;99.90
29341;DHT22;16337;59.536;13.468;2023-05-20T07:13:02;17.90;99.90
29341;DHT22;16337;59.536;13.468;2023-05-20T07:15:28;18.10;99.90
29341;DHT22;16337;59.536;13.468;2023-05-20T07:17:53;18.30;99.90
29341;DHT22;16337;59.536;13.468;2023-05-20T07:20:19;18.40;99.90
29341;DHT22;16337;59.536;13.468;2023-05-20T07:22:45;18.50;99.90
29341;DHT22;16337;59.536;13.468;2023-05-20T07:25:13;18.60;99.90
29341;DHT22;16337;59.536;13.468;2023-05-20T07:27:39;19.00;99.90
29341;DHT22;16337;59.536;13.468;2023-05-20T07:30:05;19.10;99.90
29341;DHT22;16337;59.536;13.468;2023-05-20T07:32:31;19.60;99.90
29341;DHT22;16337;59.536;13.468;2023-05-20T07:34:56;19.50;99.90
29341;DHT22;16337;59.536;13.468;2023-05-20T07:37:22;19.40;99.90
29341;DHT22;16337;59.536;13.468;2023-05-20T07:39:48;19.50;99.90
29341;DHT22;16337;59.536;13.468;2023-05-20T07:42:14;19.70;99.90
29341;DHT22;16337;59.536;13.468;2023-05-20T07:44:39;19.70;99.90
29341;DHT22;16337;59.536;13.468;2023-05-20T07:47:05;19.40;99.90
29341;DHT22;16337;59.536;13.468;2023-05-20T07:49:31;19.30;99.90
29341;DHT22;16337;59.536;13.468;2023-05-20T07:51:56;19.20;99.90
29341;DHT22;16337;59.536;13.468;2023-05-20T07:54:22;19.50;99.90
29341;DHT22;16337;59.536;13.468;2023-05-20T07:56:48;19.70;99.90
29341;DHT22;16337;59.536;13.468;2023-05-20T07:59:14;19.70;99.90
29341;DHT22;16337;59.536;13.468;2023-05-20T08:01:43;19.70;99.90
29341;DHT22;16337;59.536;13.468;2023-05-20T08:04:08;20.00;99.90
29341;DHT22;16337;59.536;13.468;2023-05-20T08:06:34;20.20;99.90
29341;DHT22;16337;59.536;13.468;2023-05-20T08:09:01;20.40;99.90
29341;DHT22;16337;59.536;13.468;2023-05-20T08:11:27;20.80;99.90
29341;DHT22;16337;59.536;13.468;2023-05-20T08:13:53;20.90;99.90
29341;DHT22;16337;59.536;13.468;2023-05-20T08:16:20;21.10;99.90
29341;DHT22;16337;59.536;13.468;2023-05-20T08:18:46;21.00;99.90
29341;DHT22;16337;59.536;13.468;2023-05-20T08:21:12;21.20;99.90
29341;DHT22;16337;59.536;13.468;2023-05-20T08:23:38;21.60;99.90
29341;DHT22;16337;59.536;13.468;2023-05-20T08:26:04;21.70;99.90
29341;DHT22;16337;59.536;13.468;2023-05-20T08:28:30;21.40;99.90
29341;DHT22;16337;59.536;13.468;2023-05-20T08:30:56;21.60;99.90
29341;DHT22;16337;59.536;13.468;2023-05-20T08:33:24;21.80;99.90
29341;DHT22;16337;59.536;13.468;2023-05-20T08:35:50;21.80;99.90
29341;DHT22;16337;59.536;13.468;2023-05-20T08:38:16;21.50;99.90
29341;DHT22;16337;59.536;13.468;2023-05-20T08:40:41;21.70;99.90
29341;DHT22;16337;59.536;13.468;2023-05-20T08:43:07;21.70;99.90
29341;DHT22;16337;59.536;13.468;2023-05-20T08:45:36;21.80;99.90
29341;DHT22;16337;59.536;13.468;2023-05-20T08:48:03;22.10;99.90
29341;DHT22;16337;59.536;13.468;2023-05-20T08:50:32;22.30;99.90
29341;DHT22;16337;59.536;13.468;2023-05-20T08:52:58;22.70;99.90
29341;DHT22;16337;59.536;13.468;2023-05-20T08:58:02;23.10;98.10
29341;DHT22;16337;59.536;13.468;2023-05-20T09:00:27;22.80;96.80
29341;DHT22;16337;59.536;13.468;2023-05-20T09:02:54;23.00;96.80
29341;DHT22;16337;59.536;13.468;2023-05-20T09:05:21;23.30;96.60
29341;DHT22;16337;59.536;13.468;2023-05-20T09:07:47;23.60;96.10
29341;DHT22;16337;59.536;13.468;2023-05-20T09:10:14;23.70;96.40
29341;DHT22;16337;59.536;13.468;2023-05-20T09:12:40;23.70;94.90
29341;DHT22;16337;59.536;13.468;2023-05-20T09:15:06;23.60;93.60
29341;DHT22;16337;59.536;13.468;2023-05-20T09:17:36;23.80;93.90
29341;DHT22;16337;59.536;13.468;2023-05-20T09:20:06;23.60;93.00
29341;DHT22;16337;59.536;13.468;2023-05-20T09:22:33;23.70;95.40
29341;DHT22;16337;59.536;13.468;2023-05-20T09:24:58;24.10;93.00
29341;DHT22;16337;59.536;13.468;2023-05-20T09:27:24;24.70;91.50
29341;DHT22;16337;59.536;13.468;2023-05-20T09:29:50;24.70;90.10
29341;DHT22;16337;59.536;13.468;2023-05-20T09:32:17;24.90;91.60
29341;DHT22;16337;59.536;13.468;2023-05-20T09:34:46;24.40;89.50
29341;DHT22;16337;59.536;13.468;2023-05-20T09:37:13;24.40;91.30
29341;DHT22;16337;59.536;13.468;2023-05-20T09:39:56;24.50;90.90
29341;DHT22;16337;59.536;13.468;2023-05-20T09:42:27;24.80;87.90
29341;DHT22;16337;59.536;13.468;2023-05-20T09:44:54;24.80;91.20
29341;DHT22;16337;59.536;13.468;2023-05-20T09:47:22;24.90;89.50
29341;DHT22;16337;59.536;13.468;2023-05-20T09:49:51;25.10;90.50
29341;DHT22;16337;59.536;13.468;2023-05-20T09:52:17;25.50;91.10
29341;DHT22;16337;59.536;13.468;2023-05-20T09:54:44;25.10;85.70
29341;DHT22;16337;59.536;13.468;2023-05-20T09:57:10;25.70;88.80
29341;DHT22;16337;59.536;13.468;2023-05-20T09:59:37;26.20;84.30
29341;DHT22;16337;59.536;13.468;2023-05-20T10:02:05;26.10;84.70
29341;DHT22;16337;59.536;13.468;2023-05-20T10:04:33;26.30;83.10
29341;DHT22;16337;59.536;13.468;2023-05-20T10:10:09;25.90;88.20
29341;DHT22;16337;59.536;13.468;2023-05-20T10:20:53;26.10;83.70
29341;DHT22;16337;59.536;13.468;2023-05-20T10:23:26;26.40;81.90
29341;DHT22;16337;59.536;13.468;2023-05-20T10:25:53;26.50;86.70
29341;DHT22;16337;59.536;13.468;2023-05-20T10:28:30;26.70;81.30
29341;DHT22;16337;59.536;13.468;2023-05-20T10:30:57;26.50;80.90
29341;DHT22;16337;59.536;13.468;2023-05-20T10:33:25;26.40;81.60
29341;DHT22;16337;59.536;13.468;2023-05-20T10:35:53;26.50;84.10
29341;DHT22;16337;59.536;13.468;2023-05-20T10:38:19;26.80;84.90
29341;DHT22;16337;59.536;13.468;2023-05-20T10:40:46;27.10;82.00
29341;DHT22;16337;59.536;13.468;2023-05-20T10:43:24;26.70;79.60
29341;DHT22;16337;59.536;13.468;2023-05-20T10:45:54;27.00;83.50
29341;DHT22;16337;59.536;13.468;2023-05-20T10:50:50;27.60;79.30
29341;DHT22;16337;59.536;13.468;2023-05-20T10:53:21;27.90;81.00
29341;DHT22;16337;59.536;13.468;2023-05-20T10:55:49;28.60;80.50
29341;DHT22;16337;59.536;13.468;2023-05-20T10:58:16;28.60;75.00
29341;DHT22;16337;59.536;13.468;2023-05-20T11:00:43;28.50;73.00
29341;DHT22;16337;59.536;13.468;2023-05-20T11:03:10;27.90;73.30
29341;DHT22;16337;59.536;13.468;2023-05-20T11:05:38;27.70;73.60
29341;DHT22;16337;59.536;13.468;2023-05-20T11:08:08;27.40;78.50
29341;DHT22;16337;59.536;13.468;2023-05-20T11:10:34;26.30;76.00
29341;DHT22;16337;59.536;13.468;2023-05-20T11:13:02;25.40;78.30
29341;DHT22;16337;59.536;13.468;2023-05-20T11:15:30;24.90;80.00
29341;DHT22;16337;59.536;13.468;2023-05-20T11:17:59;25.30;79.30
29341;DHT22;16337;59.536;13.468;2023-05-20T11:20:26;26.20;80.60
29341;DHT22;16337;59.536;13.468;2023-05-20T11:22:52;27.30;79.90
29341;DHT22;16337;59.536;13.468;2023-05-20T11:25:19;27.30;76.50
29341;DHT22;16337;59.536;13.468;2023-05-20T11:27:45;27.10;73.10
29341;DHT22;16337;59.536;13.468;2023-05-20T11:30:13;27.00;73.40
29341;DHT22;16337;59.536;13.468;2023-05-20T11:33:02;26.30;73.90
29341;DHT22;16337;59.536;13.468;2023-05-20T11:35:30;25.80;76.90
29341;DHT22;16337;59.536;13.468;2023-05-20T11:38:06;26.00;74.10
29341;DHT22;16337;59.536;13.468;2023-05-20T11:40:34;26.30;74.30
29341;DHT22;16337;59.536;13.468;2023-05-20T11:43:01;27.00;75.30
29341;DHT22;16337;59.536;13.468;2023-05-20T11:45:41;27.60;74.00
29341;DHT22;16337;59.536;13.468;2023-05-20T11:48:08;28.10;71.40
29341;DHT22;16337;59.536;13.468;2023-05-20T11:50:43;28.30;72.30
29341;DHT22;16337;59.536;13.468;2023-05-20T11:53:17;28.50;72.70
29341;DHT22;16337;59.536;13.468;2023-05-20T11:58:26;28.00;73.20
29341;DHT22;16337;59.536;13.468;2023-05-20T12:00:53;27.30;69.50
29341;DHT22;16337;59.536;13.468;2023-05-20T12:03:19;26.30;71.20
29341;DHT22;16337;59.536;13.468;2023-05-20T12:05:45;26.80;69.80
29341;DHT22;16337;59.536;13.468;2023-05-20T12:08:13;26.90;71.30
29341;DHT22;16337;59.536;13.468;2023-05-20T12:10:38;26.80;69.50
29341;DHT22;16337;59.536;13.468;2023-05-20T12:13:04;27.00;70.70
29341;DHT22;16337;59.536;13.468;2023-05-20T12:15:39;27.20;72.80
29341;DHT22;16337;59.536;13.468;2023-05-20T12:18:05;27.70;71.10
29341;DHT22;16337;59.536;13.468;2023-05-20T12:20:31;27.90;69.80
29341;DHT22;16337;59.536;13.468;2023-05-20T12:22:59;27.90;67.60
29341;DHT22;16337;59.536;13.468;2023-05-20T12:25:25;28.00;70.50
29341;DHT22;16337;59.536;13.468;2023-05-20T12:27:51;27.70;71.00
29341;DHT22;16337;59.536;13.468;2023-05-20T12:30:21;28.40;67.60
29341;DHT22;16337;59.536;13.468;2023-05-20T12:32:48;28.20;66.60
29341;DHT22;16337;59.536;13.468;2023-05-20T12:35:25;28.00;66.60
29341;DHT22;16337;59.536;13.468;2023-05-20T12:37:51;27.70;67.50
29341;DHT22;16337;59.536;13.468;2023-05-20T12:40:16;26.70;66.20
29341;DHT22;16337;59.536;13.468;2023-05-20T12:42:43;26.80;70.10
29341;DHT22;16337;59.536;13.468;2023-05-20T12:45:09;27.50;66.50
29341;DHT22;16337;59.536;13.468;2023-05-20T12:47:35;27.70;66.40
29341;DHT22;16337;59.536;13.468;2023-05-20T12:50:02;27.70;67.90
29341;DHT22;16337;59.536;13.468;2023-05-20T12:52:28;28.10;68.00
29341;DHT22;16337;59.536;13.468;2023-05-20T12:54:54;28.00;68.60
29341;DHT22;16337;59.536;13.468;2023-05-20T12:57:21;27.60;67.70
29341;DHT22;16337;59.536;13.468;2023-05-20T12:59:47;28.20;69.00
29341;DHT22;16337;59.536;13.468;2023-05-20T13:02:12;28.90;67.00
29341;DHT22;16337;59.536;13.468;2023-05-20T13:04:38;28.10;61.40
29341;DHT22;16337;59.536;13.468;2023-05-20T13:07:04;27.40;63.60
29341;DHT22;16337;59.536;13.468;2023-05-20T13:09:30;27.40;63.50
29341;DHT22;16337;59.536;13.468;2023-05-20T13:11:57;27.50;66.50
29341;DHT22;16337;59.536;13.468;2023-05-20T13:14:22;27.70;65.90
29341;DHT22;16337;59.536;13.468;2023-05-20T13:16:49;27.50;63.20
29341;DHT22;16337;59.536;13.468;2023-05-20T13:19:19;27.50;65.60
29341;DHT22;16337;59.536;13.468;2023-05-20T13:21:47;27.60;61.70
29341;DHT22;16337;59.536;13.468;2023-05-20T13:24:13;27.00;59.70
29341;DHT22;16337;59.536;13.468;2023-05-20T13:26:38;26.50;62.70
29341;DHT22;16337;59.536;13.468;2023-05-20T13:29:04;26.50;61.90
29341;DHT22;16337;59.536;13.468;2023-05-20T13:31:30;26.80;62.10
29341;DHT22;16337;59.536;13.468;2023-05-20T13:33:55;26.30;61.10
29341;DHT22;16337;59.536;13.468;2023-05-20T13:36:23;26.50;62.60
29341;DHT22;16337;59.536;13.468;2023-05-20T13:38:49;26.30;59.50
29341;DHT22;16337;59.536;13.468;2023-05-20T13:41:15;25.90;62.30
29341;DHT22;16337;59.536;13.468;2023-05-20T13:43:41;26.20;62.40
29341;DHT22;16337;59.536;13.468;2023-05-20T13:46:07;26.80;62.70
29341;DHT22;16337;59.536;13.468;2023-05-20T13:48:33;27.50;62.20
29341;DHT22;16337;59.536;13.468;2023-05-20T13:50:59;27.80;61.60
29341;DHT22;16337;59.536;13.468;2023-05-20T13:53:27;28.20;59.70
29341;DHT22;16337;59.536;13.468;2023-05-20T13:55:52;27.90;57.30
29341;DHT22;16337;59.536;13.468;2023-05-20T13:58:18;27.40;59.30
29341;DHT22;16337;59.536;13.468;2023-05-20T14:00:44;27.30;59.20
29341;DHT22;16337;59.536;13.468;2023-05-20T14:03:10;27.20;57.90
29341;DHT22;16337;59.536;13.468;2023-05-20T14:05:36;27.20;60.00
29341;DHT22;16337;59.536;13.468;2023-05-20T14:08:02;26.90;58.40
29341;DHT22;16337;59.536;13.468;2023-05-20T14:10:28;27.30;59.50
29341;DHT22;16337;59.536;13.468;2023-05-20T14:12:56;27.60;58.30
29341;DHT22;16337;59.536;13.468;2023-05-20T14:15:22;27.40;59.40
29341;DHT22;16337;59.536;13.468;2023-05-20T14:17:48;27.30;59.60
29341;DHT22;16337;59.536;13.468;2023-05-20T14:20:14;27.20;57.70
29341;DHT22;16337;59.536;13.468;2023-05-20T14:22:40;26.90;56.60
29341;DHT22;16337;59.536;13.468;2023-05-20T14:25:06;27.40;58.60
29341;DHT22;16337;59.536;13.468;2023-05-20T14:27:32;27.20;59.70
29341;DHT22;16337;59.536;13.468;2023-05-20T14:29:58;27.00;61.00
29341;DHT22;16337;59.536;13.468;2023-05-20T14:32:24;27.20;59.10
29341;DHT22;16337;59.536;13.468;2023-05-20T14:34:50;27.40;57.30
29341;DHT22;16337;59.536;13.468;2023-05-20T14:37:16;26.60;56.10
29341;DHT22;16337;59.536;13.468;2023-05-20T14:39:42;26.50;58.80
29341;DHT22;16337;59.536;13.468;2023-05-20T14:42:08;26.30;56.60
29341;DHT22;16337;59.536;13.468;2023-05-20T14:44:33;26.60;58.70
29341;DHT22;16337;59.536;13.468;2023-05-20T14:46:59;26.60;57.90
29341;DHT22;16337;59.536;13.468;2023-05-20T14:49:25;26.60;56.60
29341;DHT22;16337;59.536;13.468;2023-05-20T14:51:51;26.60;57.60
29341;DHT22;16337;59.536;13.468;2023-05-20T14:54:16;26.60;56.50
29341;DHT22;16337;59.536;13.468;2023-05-20T14:56:43;26.70;58.30
29341;DHT22;16337;59.536;13.468;2023-05-20T14:59:09;27.20;57.20
29341;DHT22;16337;59.536;13.468;2023-05-20T15:01:35;27.30;54.90
29341;DHT22;16337;59.536;13.468;2023-05-20T15:04:02;27.40;56.50
29341;DHT22;16337;59.536;13.468;2023-05-20T15:06:28;27.80;55.40
29341;DHT22;16337;59.536;13.468;2023-05-20T15:08:55;27.60;56.80
29341;DHT22;16337;59.536;13.468;2023-05-20T15:11:22;27.30;54.50
29341;DHT22;16337;59.536;13.468;2023-05-20T15:13:47;26.80;54.40
29341;DHT22;16337;59.536;13.468;2023-05-20T15:16:15;26.50;57.20
29341;DHT22;16337;59.536;13.468;2023-05-20T15:18:44;26.30;55.90
29341;DHT22;16337;59.536;13.468;2023-05-20T15:21:09;26.10;55.30
29341;DHT22;16337;59.536;13.468;2023-05-20T15:23:35;26.00;57.70
29341;DHT22;16337;59.536;13.468;2023-05-20T15:26:01;25.60;54.70
29341;DHT22;16337;59.536;13.468;2023-05-20T15:28:27;25.60;54.90
29341;DHT22;16337;59.536;13.468;2023-05-20T15:30:55;25.70;57.00
29341;DHT22;16337;59.536;13.468;2023-05-20T15:33:21;25.90;55.10
29341;DHT22;16337;59.536;13.468;2023-05-20T15:35:48;25.50;51.70